Time;durP1;ratioP1;P1;durP2;ratioP2;P2;SDS_P1;SDS_P2;PMS_P1;PMS_P2;Temp;Humidity;BMP_temperature;BMP_pressure;BME280_temperature;BME280_humidity;BME280_pressure;Samples;Min_cycle;Max_cycle;Signal;HPM_P1;HPM_P2
2021/08/20 00:02:15;;;;;;;1.15;0.80;;;;;;;;;;4943273;28;20287;-74
2021/08/20 00:04:41;;;;;;;0.90;0.80;;;;;;;;;;4945707;28;20218;-74
2021/08/20 00:07:07;;;;;;;0.80;0.70;;;;;;;;;;4954394;28;20656;-74
2021/08/20 00:09:33;;;;;;;1.30;1.20;;;;;;;;;;4967923;28;20441;-74
2021/08/20 00:11:59;;;;;;;0.80;0.70;;;;;;;;;;4956932;28;20985;-74
2021/08/20 00:14:25;;;;;;;1.10;0.80;;;;;;;;;;4954768;28;20187;-74
2021/08/20 00:16:51;;;;;;;2.03;1.30;;;;;;;;;;4969451;28;20447;-74
2021/08/20 00:19:17;;;;;;;1.15;1.05;;;;;;;;;;4968894;28;20428;-74
2021/08/20 00:21:44;;;;;;;1.10;0.82;;;;;;;;;;4971448;28;20767;-74
2021/08/20 00:24:14;;;;;;;1.48;1.00;;;;;;;;;;4945620;28;20215;-74
2021/08/20 00:26:40;;;;;;;1.42;1.33;;;;;;;;;;4929825;28;20194;-74
2021/08/20 00:29:06;;;;;;;0.80;0.60;;;;;;;;;;4932397;28;20179;-74
2021/08/20 00:31:33;;;;;;;3.43;1.30;;;;;;;;;;4959054;22;20227;-75
2021/08/20 00:33:59;;;;;;;1.10;1.00;;;;;;;;;;4954122;28;20424;-76
2021/08/20 00:36:25;;;;;;;0.90;0.68;;;;;;;;;;4993885;28;20189;-76
2021/08/20 00:38:51;;;;;;;0.80;0.70;;;;;;;;;;5027503;28;20189;-76
2021/08/20 00:41:17;;;;;;;0.90;0.70;;;;;;;;;;4972717;28;20648;-76
2021/08/20 00:43:44;;;;;;;0.90;0.70;;;;;;;;;;4933102;29;20411;-76
2021/08/20 00:46:10;;;;;;;0.90;0.77;;;;;;;;;;4957828;28;20329;-76
2021/08/20 00:48:36;;;;;;;0.90;0.90;;;;;;;;;;4985109;28;20234;-75
2021/08/20 00:51:04;;;;;;;0.80;0.60;;;;;;;;;;4960096;28;20701;-76
2021/08/20 00:53:31;;;;;;;1.17;1.08;;;;;;;;;;4991833;28;20197;-75
2021/08/20 00:55:57;;;;;;;1.33;1.23;;;;;;;;;;4987999;28;20223;-76
2021/08/20 00:58:24;;;;;;;1.25;1.15;;;;;;;;;;4983916;28;20623;-76
2021/08/20 01:00:50;;;;;;;1.13;0.90;;;;;;;;;;4984284;28;20639;-76
2021/08/20 01:03:16;;;;;;;1.90;0.80;;;;;;;;;;4974064;28;21020;-75
2021/08/20 01:05:42;;;;;;;0.87;0.80;;;;;;;;;;4945160;28;20188;-75
2021/08/20 01:08:08;;;;;;;0.93;0.70;;;;;;;;;;4985204;28;20435;-76
2021/08/20 01:10:34;;;;;;;1.57;0.90;;;;;;;;;;4965932;28;20437;-76
2021/08/20 01:13:00;;;;;;;0.80;0.70;;;;;;;;;;4935519;28;20437;-76
2021/08/20 01:15:26;;;;;;;0.90;0.80;;;;;;;;;;4961431;28;20733;-75
2021/08/20 01:17:52;;;;;;;0.87;0.80;;;;;;;;;;4989108;28;20411;-76
2021/08/20 01:20:18;;;;;;;1.23;1.13;;;;;;;;;;5008298;28;20450;-76
2021/08/20 01:22:44;;;;;;;1.60;1.00;;;;;;;;;;4980608;28;20560;-76
2021/08/20 01:25:10;;;;;;;1.17;1.07;;;;;;;;;;4987281;28;20425;-76
2021/08/20 01:27:36;;;;;;;1.30;0.80;;;;;;;;;;5011259;28;20509;-76
2021/08/20 01:30:05;;;;;;;1.20;0.70;;;;;;;;;;4996371;28;20854;-76
2021/08/20 01:32:31;;;;;;;0.82;0.68;;;;;;;;;;4976850;28;20474;-76
2021/08/20 01:34:57;;;;;;;1.40;1.30;;;;;;;;;;4976188;28;20191;-76
2021/08/20 01:37:24;;;;;;;0.97;0.87;;;;;;;;;;4998319;28;20410;-76
2021/08/20 01:39:50;;;;;;;1.20;0.80;;;;;;;;;;4990468;28;20435;-76
2021/08/20 01:42:16;;;;;;;1.30;1.20;;;;;;;;;;4987054;28;20462;-76
2021/08/20 01:44:42;;;;;;;1.47;1.37;;;;;;;;;;4954715;28;20430;-76
2021/08/20 01:47:11;;;;;;;1.00;0.90;;;;;;;;;;4993332;28;20430;-76
2021/08/20 01:49:40;;;;;;;0.90;0.80;;;;;;;;;;4945037;28;20490;-76
2021/08/20 01:52:06;;;;;;;0.93;0.70;;;;;;;;;;4961974;28;20890;-76
2021/08/20 01:54:32;;;;;;;1.23;0.80;;;;;;;;;;4986967;28;20458;-76
2021/08/20 01:56:58;;;;;;;1.80;1.27;;;;;;;;;;4958075;28;20458;-76
2021/08/20 01:59:24;;;;;;;0.80;0.70;;;;;;;;;;4959689;28;20447;-76
2021/08/20 02:01:50;;;;;;;1.10;0.90;;;;;;;;;;4951318;28;20510;-75
2021/08/20 02:04:16;;;;;;;2.13;1.50;;;;;;;;;;5022697;28;20934;-76
2021/08/20 02:06:42;;;;;;;1.07;0.97;;;;;;;;;;4964523;28;20447;-76
2021/08/20 02:09:08;;;;;;;1.00;0.83;;;;;;;;;;4981962;28;20493;-75
2021/08/20 02:11:34;;;;;;;2.23;1.03;;;;;;;;;;4971346;28;20436;-75
2021/08/20 02:14:00;;;;;;;1.63;1.53;;;;;;;;;;4935378;28;20446;-75
2021/08/20 02:16:26;;;;;;;1.47;1.37;;;;;;;;;;4982416;28;20435;-75
2021/08/20 02:18:52;;;;;;;0.80;0.60;;;;;;;;;;4977548;28;20494;-75
2021/08/20 02:21:18;;;;;;;0.90;0.90;;;;;;;;;;4978757;28;20461;-75
2021/08/20 02:23:44;;;;;;;1.10;1.00;;;;;;;;;;4990312;28;20411;-76
2021/08/20 02:26:10;;;;;;;1.63;1.17;;;;;;;;;;5015785;28;20432;-75
2021/08/20 02:28:36;;;;;;;2.00;1.00;;;;;;;;;;4986775;28;20471;-76
2021/08/20 02:31:02;;;;;;;1.93;0.90;;;;;;;;;;4948888;28;20505;-76
2021/08/20 02:33:28;;;;;;;1.37;1.27;;;;;;;;;;4987124;28;20442;-75
2021/08/20 02:35:54;;;;;;;0.90;0.83;;;;;;;;;;4975815;28;20449;-75
2021/08/20 02:38:20;;;;;;;0.90;0.70;;;;;;;;;;4984021;28;20453;-76
2021/08/20 02:40:46;;;;;;;1.00;0.90;;;;;;;;;;4983966;28;20494;-75
2021/08/20 02:43:12;;;;;;;1.60;0.97;;;;;;;;;;4978423;28;20294;-75
2021/08/20 02:45:38;;;;;;;1.70;1.60;;;;;;;;;;4979867;28;20977;-76
2021/08/20 02:48:04;;;;;;;1.00;0.90;;;;;;;;;;4980016;28;20476;-76
2021/08/20 02:50:30;;;;;;;1.37;1.00;;;;;;;;;;4947491;28;20435;-76
2021/08/20 02:52:56;;;;;;;0.80;0.60;;;;;;;;;;4978099;28;20522;-76
2021/08/20 02:55:22;;;;;;;0.93;0.83;;;;;;;;;;4937487;28;20193;-75
2021/08/20 02:57:48;;;;;;;1.10;0.80;;;;;;;;;;4978372;28;20459;-76
2021/08/20 03:00:15;;;;;;;2.30;1.30;;;;;;;;;;4939899;28;20599;-76
2021/08/20 03:02:41;;;;;;;0.90;0.70;;;;;;;;;;4970334;28;20480;-75
2021/08/20 03:05:07;;;;;;;1.03;0.93;;;;;;;;;;4990438;28;20421;-75
2021/08/20 03:07:33;;;;;;;1.40;1.10;;;;;;;;;;4991441;28;20934;-75
2021/08/20 03:09:59;;;;;;;1.73;1.63;;;;;;;;;;4961293;28;20473;-76
2021/08/20 03:12:25;;;;;;;1.10;1.00;;;;;;;;;;4999447;28;20473;-75
2021/08/20 03:14:52;;;;;;;1.30;1.20;;;;;;;;;;5012519;28;20447;-76
2021/08/20 03:17:18;;;;;;;1.30;1.10;;;;;;;;;;4977657;28;20680;-75
2021/08/20 03:19:44;;;;;;;1.03;0.93;;;;;;;;;;4976145;28;20454;-75
2021/08/20 03:22:10;;;;;;;2.70;1.13;;;;;;;;;;4977931;28;20510;-75
2021/08/20 03:24:36;;;;;;;1.23;1.13;;;;;;;;;;4987568;28;20959;-75
2021/08/20 03:27:02;;;;;;;0.90;0.80;;;;;;;;;;4978653;28;20517;-75
2021/08/20 03:29:28;;;;;;;1.90;0.90;;;;;;;;;;4958643;28;20252;-76
2021/08/20 03:31:54;;;;;;;1.10;1.00;;;;;;;;;;4960756;28;20222;-76
2021/08/20 03:34:20;;;;;;;1.10;0.93;;;;;;;;;;4993188;28;20414;-75
2021/08/20 03:36:46;;;;;;;1.13;1.03;;;;;;;;;;5008122;28;20450;-75
2021/08/20 03:39:12;;;;;;;0.90;0.80;;;;;;;;;;4995648;28;20438;-76
2021/08/20 03:41:38;;;;;;;1.00;0.87;;;;;;;;;;4992624;28;20208;-76
2021/08/20 03:44:04;;;;;;;1.70;1.00;;;;;;;;;;4996381;28;20890;-76
2021/08/20 03:46:30;;;;;;;1.53;1.43;;;;;;;;;;5011117;28;20501;-76
2021/08/20 03:48:56;;;;;;;1.15;0.95;;;;;;;;;;4973810;28;20797;-76
2021/08/20 03:51:22;;;;;;;1.15;1.05;;;;;;;;;;4988348;28;20720;-76
2021/08/20 03:53:48;;;;;;;0.90;0.80;;;;;;;;;;4987575;28;20182;-76
2021/08/20 03:56:14;;;;;;;1.00;0.90;;;;;;;;;;4996188;28;20817;-75
2021/08/20 03:58:40;;;;;;;1.40;1.30;;;;;;;;;;4976888;28;20406;-76
2021/08/20 04:01:06;;;;;;;1.35;1.00;;;;;;;;;;4941525;29;20846;-76
2021/08/20 04:03:32;;;;;;;0.80;0.70;;;;;;;;;;4976031;28;20218;-76
2021/08/20 04:05:58;;;;;;;1.25;1.15;;;;;;;;;;4999865;28;20473;-76
2021/08/20 04:08:24;;;;;;;1.50;1.13;;;;;;;;;;4983595;28;20213;-76
2021/08/20 04:10:50;;;;;;;2.30;1.50;;;;;;;;;;4942477;28;20441;-75
2021/08/20 04:13:17;;;;;;;0.80;0.60;;;;;;;;;;5000181;28;20476;-75
2021/08/20 04:15:43;;;;;;;1.10;1.00;;;;;;;;;;4947113;28;20189;-76
2021/08/20 04:18:10;;;;;;;1.63;1.52;;;;;;;;;;4961531;28;20800;-76
2021/08/20 04:20:36;;;;;;;1.13;1.02;;;;;;;;;;4971811;28;20199;-76
2021/08/20 04:23:02;;;;;;;1.03;0.93;;;;;;;;;;4983597;28;20571;-76
2021/08/20 04:25:28;;;;;;;1.58;1.48;;;;;;;;;;4978648;28;20913;-75
2021/08/20 04:27:55;;;;;;;1.10;1.00;;;;;;;;;;4997185;28;20183;-71
2021/08/20 04:30:22;;;;;;;3.28;1.00;;;;;;;;;;4940135;29;20873;-71
2021/08/20 04:32:48;;;;;;;0.88;0.75;;;;;;;;;;4989823;28;20253;-71
2021/08/20 04:35:14;;;;;;;0.85;0.80;;;;;;;;;;4987580;28;20187;-71
2021/08/20 04:37:40;;;;;;;1.80;0.90;;;;;;;;;;4983169;28;20179;-72
2021/08/20 04:40:07;;;;;;;1.08;0.98;;;;;;;;;;5033670;28;20756;-72
2021/08/20 04:42:35;;;;;;;1.48;1.38;;;;;;;;;;4978563;28;20336;-72
2021/08/20 04:45:01;;;;;;;1.40;1.30;;;;;;;;;;5010078;28;21936;-73
2021/08/20 04:47:27;;;;;;;2.55;1.90;;;;;;;;;;4976877;28;20171;-73
2021/08/20 04:49:53;;;;;;;0.90;0.75;;;;;;;;;;4990397;28;20205;-71
2021/08/20 04:52:20;;;;;;;1.53;1.43;;;;;;;;;;4978826;28;20217;-71
2021/08/20 04:54:46;;;;;;;1.98;1.88;;;;;;;;;;4979092;28;20485;-72
2021/08/20 04:57:12;;;;;;;2.25;1.45;;;;;;;;;;4974838;28;20186;-72
2021/08/20 04:59:38;;;;;;;0.80;0.60;;;;;;;;;;4943713;28;20219;-72
2021/08/20 05:02:04;;;;;;;2.27;2.17;;;;;;;;;;4957991;28;20476;-73
2021/08/20 05:04:33;;;;;;;0.90;0.80;;;;;;;;;;4961334;28;20908;-72
2021/08/20 05:06:59;;;;;;;1.38;1.15;;;;;;;;;;4989102;28;20434;-72
2021/08/20 05:09:26;;;;;;;1.60;1.50;;;;;;;;;;4991870;28;20183;-72
2021/08/20 05:11:52;;;;;;;0.88;0.75;;;;;;;;;;4960863;28;20521;-73
2021/08/20 05:14:18;;;;;;;1.55;0.80;;;;;;;;;;4943072;28;20247;-72
2021/08/20 05:16:48;;;;;;;1.20;0.90;;;;;;;;;;4948023;28;20249;-73
2021/08/20 05:19:14;;;;;;;0.98;0.88;;;;;;;;;;4958134;28;20323;-71
2021/08/20 05:21:40;;;;;;;0.90;0.70;;;;;;;;;;4933939;29;20253;-73
2021/08/20 05:24:06;;;;;;;1.67;1.58;;;;;;;;;;4951840;29;20235;-73
2021/08/20 05:26:32;;;;;;;1.73;0.93;;;;;;;;;;4977417;28;20211;-72
2021/08/20 05:28:58;;;;;;;1.15;1.05;;;;;;;;;;4973275;28;21194;-72
2021/08/20 05:31:24;;;;;;;3.72;1.65;;;;;;;;;;4932626;28;20208;-72
2021/08/20 05:33:50;;;;;;;1.70;0.90;;;;;;;;;;4943371;28;20194;-71
2021/08/20 05:36:17;;;;;;;1.60;1.30;;;;;;;;;;4963873;28;20187;-72
2021/08/20 05:38:43;;;;;;;1.63;1.50;;;;;;;;;;4962223;28;20261;-72
2021/08/20 05:41:09;;;;;;;1.45;1.35;;;;;;;;;;4932221;28;20183;-71
2021/08/20 05:43:35;;;;;;;0.82;0.82;;;;;;;;;;4940201;29;20296;-72
2021/08/20 05:46:01;;;;;;;3.58;1.77;;;;;;;;;;4946486;28;20206;-72
2021/08/20 05:48:27;;;;;;;1.10;0.93;;;;;;;;;;4936762;28;20183;-74
2021/08/20 05:50:53;;;;;;;1.57;1.47;;;;;;;;;;4932282;29;20178;-71
2021/08/20 05:53:19;;;;;;;1.63;1.27;;;;;;;;;;4932254;28;20442;-71
2021/08/20 05:55:45;;;;;;;1.40;1.30;;;;;;;;;;4931874;29;20200;-72
2021/08/20 05:58:11;;;;;;;2.90;1.33;;;;;;;;;;4931164;28;20242;-73
2021/08/20 06:00:37;;;;;;;1.40;1.30;;;;;;;;;;4940407;28;20958;-72
2021/08/20 06:03:03;;;;;;;1.20;1.10;;;;;;;;;;4951300;28;20242;-72
2021/08/20 06:05:29;;;;;;;1.42;1.30;;;;;;;;;;4945516;29;20215;-72
2021/08/20 06:07:55;;;;;;;1.40;1.13;;;;;;;;;;4929220;28;20221;-71
2021/08/20 06:10:22;;;;;;;1.20;1.10;;;;;;;;;;4932260;28;20415;-72
2021/08/20 06:12:48;;;;;;;1.20;1.00;;;;;;;;;;4930701;28;20443;-74
2021/08/20 06:15:14;;;;;;;4.60;2.27;;;;;;;;;;4930920;28;20519;-71
2021/08/20 06:17:42;;;;;;;3.47;1.83;;;;;;;;;;4931716;29;20424;-73
2021/08/20 06:20:08;;;;;;;0.80;0.70;;;;;;;;;;4931148;28;20811;-71
2021/08/20 06:22:34;;;;;;;2.93;1.80;;;;;;;;;;4931844;29;20511;-72
2021/08/20 06:25:00;;;;;;;1.13;1.03;;;;;;;;;;4931707;29;20411;-72
2021/08/20 06:27:26;;;;;;;1.00;0.90;;;;;;;;;;4931434;29;20419;-72
2021/08/20 06:29:52;;;;;;;2.57;1.70;;;;;;;;;;4939547;28;20411;-72
2021/08/20 06:32:18;;;;;;;1.97;1.87;;;;;;;;;;4968822;23;20502;-71
2021/08/20 06:34:44;;;;;;;0.80;0.70;;;;;;;;;;4960485;28;20439;-71
2021/08/20 06:37:10;;;;;;;1.53;1.30;;;;;;;;;;4947978;28;20465;-69
2021/08/20 06:39:36;;;;;;;0.90;0.80;;;;;;;;;;4931737;29;20405;-71
2021/08/20 06:42:02;;;;;;;1.70;1.60;;;;;;;;;;4955261;28;20472;-71
2021/08/20 06:44:29;;;;;;;1.00;0.70;;;;;;;;;;5033310;28;20913;-71
2021/08/20 06:46:55;;;;;;;1.50;1.00;;;;;;;;;;4964106;28;20445;-71
2021/08/20 06:49:21;;;;;;;1.47;1.37;;;;;;;;;;4965233;28;20451;-71
2021/08/20 06:51:47;;;;;;;1.47;1.10;;;;;;;;;;4973323;28;20476;-71
2021/08/20 06:54:13;;;;;;;1.17;1.07;;;;;;;;;;4952640;28;20969;-71
2021/08/20 06:56:39;;;;;;;3.23;1.80;;;;;;;;;;4940388;28;20465;-71
2021/08/20 06:59:05;;;;;;;1.17;1.07;;;;;;;;;;4960765;28;20470;-71
2021/08/20 07:01:31;;;;;;;2.13;1.83;;;;;;;;;;4965047;28;20445;-71
2021/08/20 07:03:59;;;;;;;2.40;2.17;;;;;;;;;;4963585;28;20420;-71
2021/08/20 07:06:26;;;;;;;1.23;1.13;;;;;;;;;;4951903;28;20915;-71
2021/08/20 07:08:53;;;;;;;1.10;0.90;;;;;;;;;;4953809;28;20462;-71
2021/08/20 07:11:22;;;;;;;1.60;1.50;;;;;;;;;;4953375;28;20408;-71
2021/08/20 07:13:48;;;;;;;1.10;0.70;;;;;;;;;;4953652;29;20937;-71
2021/08/20 07:16:15;;;;;;;3.63;2.80;;;;;;;;;;4951421;28;20431;-71
2021/08/20 07:18:41;;;;;;;0.90;0.77;;;;;;;;;;4935270;29;20410;-71
2021/08/20 07:21:07;;;;;;;1.83;0.90;;;;;;;;;;4934618;29;20411;-71
2021/08/20 07:23:33;;;;;;;1.10;1.00;;;;;;;;;;4934233;29;20443;-71
2021/08/20 07:26:08;;;;;;;2.50;1.33;;;;;;;;;;4941243;29;20475;-71
2021/08/20 07:28:34;;;;;;;1.10;1.00;;;;;;;;;;4949281;28;20399;-71
2021/08/20 07:31:01;;;;;;;1.33;1.23;;;;;;;;;;4964871;28;20393;-71
2021/08/20 07:33:27;;;;;;;1.63;1.30;;;;;;;;;;4954310;28;20962;-71
2021/08/20 07:35:53;;;;;;;3.97;1.20;;;;;;;;;;4946664;29;20491;-71
2021/08/20 07:38:19;;;;;;;2.80;1.50;;;;;;;;;;4934319;29;20799;-71
2021/08/20 07:40:45;;;;;;;1.47;1.37;;;;;;;;;;4934358;28;20759;-71
2021/08/20 07:43:11;;;;;;;1.40;1.30;;;;;;;;;;4934127;28;20447;-71
2021/08/20 07:45:37;;;;;;;0.80;0.60;;;;;;;;;;4937874;29;20432;-71
2021/08/20 07:48:03;;;;;;;0.80;0.60;;;;;;;;;;4951265;28;20440;-71
2021/08/20 07:50:29;;;;;;;1.20;1.07;;;;;;;;;;4953244;28;20384;-71
2021/08/20 07:52:55;;;;;;;1.00;0.90;;;;;;;;;;4952968;28;20447;-71
2021/08/20 07:55:23;;;;;;;2.10;2.00;;;;;;;;;;4952325;28;20394;-71
2021/08/20 07:57:51;;;;;;;1.53;1.17;;;;;;;;;;4958691;28;20490;-71
2021/08/20 08:00:21;;;;;;;0.90;0.70;;;;;;;;;;4982453;28;20511;-71
2021/08/20 08:02:47;;;;;;;1.20;0.67;;;;;;;;;;4970925;28;20463;-71
2021/08/20 08:05:13;;;;;;;1.10;0.97;;;;;;;;;;4972453;28;20447;-71
2021/08/20 08:07:39;;;;;;;1.50;1.20;;;;;;;;;;4971961;28;20443;-71
2021/08/20 08:10:05;;;;;;;1.83;1.13;;;;;;;;;;4972241;28;20403;-71
2021/08/20 08:12:31;;;;;;;1.20;1.10;;;;;;;;;;4972344;28;20472;-70
2021/08/20 08:14:57;;;;;;;1.47;1.00;;;;;;;;;;4972234;28;20393;-71
2021/08/20 08:17:23;;;;;;;2.40;0.90;;;;;;;;;;4968756;28;20917;-71
2021/08/20 08:19:49;;;;;;;1.33;1.23;;;;;;;;;;4933835;29;20430;-70
2021/08/20 08:22:15;;;;;;;1.00;0.90;;;;;;;;;;4933423;29;20858;-71
2021/08/20 08:24:41;;;;;;;2.50;1.50;;;;;;;;;;4933584;29;20424;-70
2021/08/20 08:27:07;;;;;;;1.63;1.53;;;;;;;;;;4933324;29;20395;-70
2021/08/20 08:29:33;;;;;;;1.90;0.80;;;;;;;;;;4956669;28;20412;-70
2021/08/20 08:31:59;;;;;;;2.70;1.90;;;;;;;;;;4964032;28;20424;-71
2021/08/20 08:34:25;;;;;;;1.40;0.70;;;;;;;;;;4972022;28;20896;-70
2021/08/20 08:36:51;;;;;;;0.80;0.77;;;;;;;;;;4971347;28;20463;-70
2021/08/20 08:39:17;;;;;;;1.10;0.90;;;;;;;;;;4971885;28;20394;-70
2021/08/20 08:41:43;;;;;;;1.00;0.90;;;;;;;;;;4971582;28;20595;-71
2021/08/20 08:44:10;;;;;;;3.53;1.10;;;;;;;;;;4971824;28;20485;-70
2021/08/20 08:46:37;;;;;;;1.17;1.07;;;;;;;;;;4971366;28;20382;-70
2021/08/20 08:49:07;;;;;;;2.83;1.23;;;;;;;;;;4957974;28;20407;-70
2021/08/20 08:51:33;;;;;;;0.90;0.90;;;;;;;;;;4960770;28;20805;-70
2021/08/20 08:53:59;;;;;;;3.77;1.23;;;;;;;;;;4971636;28;20467;-70
2021/08/20 08:56:25;;;;;;;0.93;0.80;;;;;;;;;;4971299;28;20391;-70
2021/08/20 08:58:51;;;;;;;1.00;0.90;;;;;;;;;;4971499;28;20390;-70
2021/08/20 09:01:25;;;;;;;1.23;1.10;;;;;;;;;;4971475;28;20502;-71
2021/08/20 09:04:06;;;;;;;0.93;0.83;;;;;;;;;;4970387;28;20635;-71
2021/08/20 09:06:39;;;;;;;0.80;0.80;;;;;;;;;;4971363;28;20382;-71
2021/08/20 09:09:06;;;;;;;0.90;0.80;;;;;;;;;;4970571;28;20756;-71
2021/08/20 09:11:32;;;;;;;1.50;0.70;;;;;;;;;;4971149;28;20383;-70
2021/08/20 09:13:58;;;;;;;0.93;0.80;;;;;;;;;;4971264;28;20418;-70
2021/08/20 09:16:33;;;;;;;0.90;0.80;;;;;;;;;;4970688;28;20456;-70
2021/08/20 09:19:08;;;;;;;0.90;0.63;;;;;;;;;;4953739;28;21046;-71
2021/08/20 09:21:34;;;;;;;0.80;0.50;;;;;;;;;;4959923;28;20387;-71
2021/08/20 09:24:00;;;;;;;0.80;0.60;;;;;;;;;;4971277;28;20394;-71
2021/08/20 09:26:26;;;;;;;1.00;0.90;;;;;;;;;;4970741;28;20389;-71
2021/08/20 09:28:53;;;;;;;1.07;0.90;;;;;;;;;;4970950;28;20404;-71
2021/08/20 09:31:22;;;;;;;0.80;0.60;;;;;;;;;;4970950;28;20386;-71
2021/08/20 09:33:49;;;;;;;0.70;0.60;;;;;;;;;;4970782;28;20426;-71
2021/08/20 09:36:17;;;;;;;1.00;0.90;;;;;;;;;;4970742;28;20409;-71
2021/08/20 09:38:47;;;;;;;0.80;0.60;;;;;;;;;;4970883;28;20393;-71
2021/08/20 09:41:17;;;;;;;0.70;0.50;;;;;;;;;;4970947;28;20387;-71
2021/08/20 09:43:46;;;;;;;0.80;0.67;;;;;;;;;;4970528;28;20969;-71
2021/08/20 09:46:12;;;;;;;0.97;0.73;;;;;;;;;;4970547;28;20422;-71
2021/08/20 09:48:41;;;;;;;0.90;0.67;;;;;;;;;;4957741;28;20437;-71
2021/08/20 09:51:08;;;;;;;1.00;0.90;;;;;;;;;;4952998;28;20379;-71
2021/08/20 09:53:34;;;;;;;0.70;0.60;;;;;;;;;;4967590;28;20417;-71
2021/08/20 09:56:02;;;;;;;0.70;0.50;;;;;;;;;;4970195;28;20412;-71
2021/08/20 09:58:31;;;;;;;0.70;0.60;;;;;;;;;;4963536;28;20800;-71
2021/08/20 10:00:58;;;;;;;0.70;0.50;;;;;;;;;;4951356;28;20391;-71
2021/08/20 10:03:24;;;;;;;0.70;0.50;;;;;;;;;;4951122;29;21014;-71
2021/08/20 10:05:50;;;;;;;0.70;0.50;;;;;;;;;;4950912;29;20396;-71
2021/08/20 10:08:16;;;;;;;0.70;0.57;;;;;;;;;;4951201;29;20387;-71
2021/08/20 10:10:44;;;;;;;0.70;0.50;;;;;;;;;;4950975;29;20387;-71
2021/08/20 10:13:11;;;;;;;0.70;0.50;;;;;;;;;;4950989;29;20433;-71
2021/08/20 10:15:37;;;;;;;0.70;0.60;;;;;;;;;;4951091;29;20422;-71
2021/08/20 10:18:05;;;;;;;1.60;0.73;;;;;;;;;;4949450;28;20423;-71
2021/08/20 10:20:34;;;;;;;0.70;0.50;;;;;;;;;;4950753;28;20437;-71
2021/08/20 10:23:00;;;;;;;1.00;0.60;;;;;;;;;;4949838;28;20461;-71
2021/08/20 10:25:26;;;;;;;0.70;0.50;;;;;;;;;;4955179;28;20468;-71
2021/08/20 10:27:54;;;;;;;1.30;0.60;;;;;;;;;;4969360;28;20412;-71
2021/08/20 10:30:20;;;;;;;0.70;0.50;;;;;;;;;;4970351;28;20409;-71
2021/08/20 10:32:58;;;;;;;0.70;0.50;;;;;;;;;;4963097;28;20472;-71
2021/08/20 10:35:44;;;;;;;0.70;0.60;;;;;;;;;;4950831;28;20442;-71
2021/08/20 10:38:27;;;;;;;1.33;1.23;;;;;;;;;;4950783;28;20450;-71
2021/08/20 10:41:06;;;;;;;0.90;0.70;;;;;;;;;;4950955;28;20850;-71
2021/08/20 10:43:51;;;;;;;1.43;0.60;;;;;;;;;;4971466;28;20497;-71
2021/08/20 10:46:36;;;;;;;0.70;0.53;;;;;;;;;;4961733;28;20478;-71
2021/08/20 10:49:11;;;;;;;0.80;0.60;;;;;;;;;;4967448;28;20420;-71
2021/08/20 10:51:52;;;;;;;0.70;0.50;;;;;;;;;;4959150;28;20419;-71
2021/08/20 10:54:24;;;;;;;0.70;0.60;;;;;;;;;;4946537;28;20449;-71
2021/08/20 10:56:50;;;;;;;1.10;0.60;;;;;;;;;;4931107;29;20476;-71
2021/08/20 10:59:46;;;;;;;0.73;0.60;;;;;;;;;;4931509;29;20407;-71
2021/08/20 11:02:21;;;;;;;0.70;0.57;;;;;;;;;;4931275;29;20466;-71
2021/08/20 11:05:02;;;;;;;0.70;0.50;;;;;;;;;;4931282;29;20410;-71
2021/08/20 11:07:37;;;;;;;0.70;0.50;;;;;;;;;;4931361;29;20410;-71
2021/08/20 11:10:09;;;;;;;0.77;0.67;;;;;;;;;;4931415;29;20417;-71
2021/08/20 11:12:48;;;;;;;0.70;0.50;;;;;;;;;;4931111;28;20434;-71
2021/08/20 11:15:24;;;;;;;0.70;0.50;;;;;;;;;;4931190;29;20437;-71
2021/08/20 11:17:52;;;;;;;0.70;0.60;;;;;;;;;;4941413;29;20441;-71
2021/08/20 11:20:22;;;;;;;0.90;0.70;;;;;;;;;;4956640;28;20424;-71
2021/08/20 11:23:06;;;;;;;0.70;0.60;;;;;;;;;;4961252;28;20494;-71
2021/08/20 11:25:35;;;;;;;1.93;1.33;;;;;;;;;;4969432;28;20420;-71
2021/08/20 11:28:03;;;;;;;0.70;0.50;;;;;;;;;;4969476;28;20448;-71
2021/08/20 11:30:29;;;;;;;0.90;0.90;;;;;;;;;;4969558;28;20413;-71
2021/08/20 11:33:12;;;;;;;0.80;0.60;;;;;;;;;;4972690;28;20485;-71
2021/08/20 11:35:38;;;;;;;0.70;0.60;;;;;;;;;;4972705;28;20421;-71
2021/08/20 11:38:05;;;;;;;0.70;0.70;;;;;;;;;;4973016;28;20418;-71
2021/08/20 11:40:31;;;;;;;0.87;0.80;;;;;;;;;;4972687;28;20416;-71
2021/08/20 11:43:05;;;;;;;0.77;0.60;;;;;;;;;;4956642;28;20482;-71
2021/08/20 11:45:31;;;;;;;0.70;0.70;;;;;;;;;;4934032;29;20507;-71
2021/08/20 11:47:58;;;;;;;1.30;0.63;;;;;;;;;;4933914;29;20423;-71
2021/08/20 11:50:25;;;;;;;0.70;0.50;;;;;;;;;;4953864;28;20413;-71
2021/08/20 11:52:51;;;;;;;0.80;0.50;;;;;;;;;;4964567;28;21006;-71
2021/08/20 11:55:17;;;;;;;0.70;0.60;;;;;;;;;;4972537;28;20478;-71
2021/08/20 11:57:43;;;;;;;0.70;0.50;;;;;;;;;;4962061;28;20427;-71
2021/08/20 12:00:09;;;;;;;1.97;0.93;;;;;;;;;;4966199;28;20988;-71
2021/08/20 12:02:35;;;;;;;0.70;0.50;;;;;;;;;;4964207;28;20500;-71
2021/08/20 12:05:21;;;;;;;0.70;0.57;;;;;;;;;;4972385;28;20384;-71
2021/08/20 12:07:47;;;;;;;0.70;0.60;;;;;;;;;;4972131;28;20442;-71
2021/08/20 12:10:17;;;;;;;0.70;0.50;;;;;;;;;;4972445;28;20410;-71
2021/08/20 12:12:44;;;;;;;0.90;0.60;;;;;;;;;;4967620;28;20476;-71
2021/08/20 12:15:11;;;;;;;0.70;0.60;;;;;;;;;;4934243;29;20926;-71
2021/08/20 12:17:37;;;;;;;1.17;0.73;;;;;;;;;;4933509;29;20414;-71
2021/08/20 12:20:19;;;;;;;0.70;0.60;;;;;;;;;;4944044;28;20434;-71
2021/08/20 12:22:49;;;;;;;0.70;0.50;;;;;;;;;;4964072;28;20450;-71
2021/08/20 12:25:18;;;;;;;0.80;0.60;;;;;;;;;;4972103;28;20421;-71
2021/08/20 12:27:46;;;;;;;0.70;0.63;;;;;;;;;;4971655;28;20420;-71
2021/08/20 12:30:13;;;;;;;0.80;0.63;;;;;;;;;;4971823;28;20794;-71
2021/08/20 12:32:43;;;;;;;0.70;0.57;;;;;;;;;;4988618;23;20493;-73
2021/08/20 12:35:09;;;;;;;0.70;0.60;;;;;;;;;;4963995;28;20409;-73
2021/08/20 12:37:35;;;;;;;0.90;0.70;;;;;;;;;;4971714;28;20417;-73
2021/08/20 12:40:05;;;;;;;0.80;0.60;;;;;;;;;;4971808;28;20461;-74
2021/08/20 12:42:31;;;;;;;0.70;0.60;;;;;;;;;;4971356;28;20970;-73
2021/08/20 12:45:07;;;;;;;0.67;0.60;;;;;;;;;;4939776;28;20445;-74
2021/08/20 12:47:34;;;;;;;0.70;0.60;;;;;;;;;;4932783;29;20923;-73
2021/08/20 12:50:00;;;;;;;0.80;0.70;;;;;;;;;;4940642;28;20916;-74
2021/08/20 12:52:27;;;;;;;1.10;0.83;;;;;;;;;;4963593;28;20945;-73
2021/08/20 12:54:53;;;;;;;0.70;0.60;;;;;;;;;;4972267;28;20431;-73
2021/08/20 12:57:19;;;;;;;0.60;0.60;;;;;;;;;;4971283;28;20457;-73
2021/08/20 12:59:45;;;;;;;0.80;0.73;;;;;;;;;;4971700;28;20419;-72
2021/08/20 13:02:12;;;;;;;0.60;0.50;;;;;;;;;;4971160;28;21039;-72
2021/08/20 13:04:38;;;;;;;0.70;0.50;;;;;;;;;;4971547;28;20851;-73
2021/08/20 13:07:04;;;;;;;1.10;0.90;;;;;;;;;;4971518;28;20929;-73
2021/08/20 13:09:30;;;;;;;1.10;0.73;;;;;;;;;;4971503;28;20411;-73
2021/08/20 13:11:56;;;;;;;1.17;0.60;;;;;;;;;;4971326;28;20419;-73
2021/08/20 13:14:22;;;;;;;0.60;0.60;;;;;;;;;;4952953;28;20520;-73
2021/08/20 13:16:53;;;;;;;0.60;0.60;;;;;;;;;;4951825;29;20771;-73
2021/08/20 13:19:19;;;;;;;0.80;0.60;;;;;;;;;;4950382;29;20440;-73
2021/08/20 13:21:45;;;;;;;0.90;0.90;;;;;;;;;;4961509;28;20423;-73
2021/08/20 13:24:11;;;;;;;0.60;0.60;;;;;;;;;;4971199;28;20439;-73
2021/08/20 13:26:37;;;;;;;0.60;0.50;;;;;;;;;;4971186;28;20811;-73
2021/08/20 13:29:03;;;;;;;0.77;0.63;;;;;;;;;;4970012;28;20416;-73
2021/08/20 13:31:29;;;;;;;0.70;0.50;;;;;;;;;;4971130;28;20423;-73
2021/08/20 13:33:55;;;;;;;0.73;0.73;;;;;;;;;;4970701;28;20481;-73
2021/08/20 13:36:21;;;;;;;1.00;0.90;;;;;;;;;;4970762;28;20430;-73
2021/08/20 13:38:47;;;;;;;0.60;0.50;;;;;;;;;;4970858;28;20419;-73
2021/08/20 13:41:14;;;;;;;0.60;0.50;;;;;;;;;;4970933;28;20851;-73
2021/08/20 13:43:41;;;;;;;0.60;0.50;;;;;;;;;;4954560;28;20503;-73
2021/08/20 13:46:07;;;;;;;1.03;0.93;;;;;;;;;;4932578;29;20447;-73
2021/08/20 13:48:35;;;;;;;0.60;0.50;;;;;;;;;;4932326;29;20449;-73
2021/08/20 13:51:01;;;;;;;1.10;1.00;;;;;;;;;;4957459;28;20907;-73
2021/08/20 13:53:27;;;;;;;1.00;0.90;;;;;;;;;;4966011;28;20451;-72
2021/08/20 13:55:53;;;;;;;0.60;0.60;;;;;;;;;;4970585;28;20849;-73
2021/08/20 13:58:19;;;;;;;1.00;1.00;;;;;;;;;;4970775;28;20433;-73
2021/08/20 14:00:45;;;;;;;0.60;0.60;;;;;;;;;;4962307;28;20884;-73
2021/08/20 14:03:11;;;;;;;0.70;0.60;;;;;;;;;;4964411;28;20497;-73
2021/08/20 14:05:38;;;;;;;0.60;0.60;;;;;;;;;;4970636;28;20927;-73
2021/08/20 14:08:05;;;;;;;0.90;0.63;;;;;;;;;;4970304;28;20418;-73
2021/08/20 14:10:31;;;;;;;0.67;0.60;;;;;;;;;;4964625;28;20968;-73
2021/08/20 14:12:57;;;;;;;0.60;0.50;;;;;;;;;;4948461;29;21025;-73
2021/08/20 14:15:23;;;;;;;0.60;0.50;;;;;;;;;;4935356;29;20525;-73
2021/08/20 14:17:49;;;;;;;0.80;0.80;;;;;;;;;;4945393;29;20512;-73
2021/08/20 14:20:15;;;;;;;0.60;0.50;;;;;;;;;;4949517;29;20553;-73
2021/08/20 14:22:41;;;;;;;1.10;0.90;;;;;;;;;;4950645;29;20464;-73
2021/08/20 14:25:09;;;;;;;1.00;0.60;;;;;;;;;;4951137;29;20395;-73
2021/08/20 14:27:35;;;;;;;0.60;0.60;;;;;;;;;;4949318;29;20525;-73
2021/08/20 14:30:01;;;;;;;0.70;0.60;;;;;;;;;;4955238;28;20494;-73
2021/08/20 14:32:30;;;;;;;1.77;0.70;;;;;;;;;;4961069;28;20462;-73
2021/08/20 14:34:56;;;;;;;0.60;0.57;;;;;;;;;;4970169;28;20431;-74
2021/08/20 14:37:22;;;;;;;0.60;0.60;;;;;;;;;;4969846;28;20414;-73
2021/08/20 14:39:48;;;;;;;0.60;0.60;;;;;;;;;;4959438;28;20425;-73
2021/08/20 14:42:14;;;;;;;0.60;0.60;;;;;;;;;;4931594;28;21033;-73
2021/08/20 14:44:40;;;;;;;0.60;0.60;;;;;;;;;;4931921;29;20467;-73